createdAt,value
2023-03-21T00:03:16.523Z,75143.41
2023-03-21T00:13:28.385Z,75143.41
2023-03-21T00:23:32.488Z,75141.41
2023-03-21T00:33:39.143Z,75137.34
2023-03-21T00:43:44.036Z,75143.41
2023-03-21T00:53:48.545Z,75147.47
2023-03-21T01:04:05.551Z,75159.59
2023-03-21T01:14:21.292Z,75171.75
2023-03-21T01:24:27.100Z,75177.81
2023-03-21T01:34:31.956Z,75181.88
2023-03-21T01:44:56.973Z,75185.91
2023-03-21T01:55:05.501Z,75175.78
2023-03-21T02:05:33.756Z,75171.75
2023-03-21T02:15:42.508Z,75175.78
2023-03-21T02:26:20.388Z,75191.97
2023-03-21T02:36:51.533Z,75191.97
2023-03-21T02:47:06.422Z,75200.06
2023-03-21T02:57:17.454Z,75206.16
2023-03-21T03:07:29.266Z,75212.22
2023-03-21T03:17:46.557Z,75210.19
2023-03-21T03:27:53.572Z,75208.16
2023-03-21T03:38:03.266Z,75216.25
2023-03-21T03:48:11.926Z,75216.25
2023-03-21T03:58:23.771Z,75228.41
2023-03-21T04:08:30.850Z,75224.34
2023-03-21T04:18:38.565Z,75224.34
2023-03-21T04:28:41.948Z,75232.47
2023-03-21T04:39:12.666Z,75236.50
2023-03-21T04:49:19.290Z,75236.50
2023-03-21T04:59:28.575Z,75236.50
2023-03-21T05:09:43.939Z,75228.41
2023-03-21T05:19:52.935Z,75232.47
2023-03-21T05:29:59.937Z,75228.41
2023-03-21T05:40:09.410Z,75236.50
2023-03-21T05:50:15.240Z,75242.56
2023-03-21T06:00:31.962Z,75242.56
2023-03-21T06:11:02.500Z,75159.59
2023-03-21T06:21:07.684Z,75200.06
2023-03-21T06:31:09.969Z,75224.34
2023-03-21T06:41:17.104Z,75218.28
2023-03-21T06:51:29.998Z,75220.31
2023-03-21T07:01:43.045Z,75232.47
2023-03-21T07:11:45.695Z,75236.50
2023-03-21T07:21:49.498Z,75248.66
2023-03-21T07:31:51.902Z,75228.41
2023-03-21T07:42:00.386Z,75194.00
2023-03-21T07:52:14.404Z,75171.75
2023-03-21T08:02:17.790Z,75129.25
2023-03-21T08:12:25.829Z,75135.31
2023-03-21T08:22:28.091Z,75133.31
2023-03-21T08:32:31.376Z,75113.06
2023-03-21T08:42:38.980Z,75076.66
2023-03-21T08:52:41.225Z,75034.16
2023-03-21T09:02:44.867Z,75046.28
2023-03-21T09:12:56.757Z,75034.16
2023-03-21T09:23:02.905Z,75054.38
2023-03-21T09:33:19.534Z,75082.72
2023-03-21T09:43:44.746Z,75078.66
2023-03-21T09:53:49.672Z,75098.91
2023-03-21T10:04:03.848Z,75135.31
2023-03-21T10:14:12.728Z,75145.44
2023-03-21T10:24:32.434Z,75173.78
2023-03-21T10:34:43.399Z,75270.91
2023-03-21T10:44:50.083Z,75279.00
2023-03-21T10:55:09.641Z,75246.63
2023-03-21T11:05:33.692Z,75171.75
2023-03-21T11:15:47.169Z,75115.09
2023-03-21T11:25:51.480Z,75056.41
2023-03-21T11:36:05.459Z,75070.56
2023-03-21T11:46:14.370Z,75022.00
2023-03-21T11:56:26.123Z,74949.16
2023-03-21T12:06:42.931Z,74949.16
2023-03-21T12:17:06.611Z,74949.16
2023-03-21T12:27:34.574Z,74949.16
2023-03-21T12:38:04.226Z,74928.94
2023-03-21T12:48:18.739Z,74945.13
2023-03-21T12:58:24.818Z,74920.84
2023-03-21T13:08:38.923Z,74882.41
2023-03-21T13:18:50.365Z,74918.81
2023-03-21T13:28:54.854Z,74924.88
2023-03-21T13:39:05.896Z,74896.56
2023-03-21T13:49:07.971Z,74916.78
2023-03-21T13:59:33.086Z,74943.09
2023-03-21T14:09:44.727Z,74935.00
2023-03-21T14:19:51.268Z,74951.19
2023-03-21T14:29:53.657Z,74955.25
2023-03-21T14:40:01.241Z,74955.25
2023-03-21T14:50:07.473Z,74924.88
2023-03-21T15:00:21.811Z,74971.44
2023-03-21T15:10:25.240Z,75005.81
2023-03-21T15:20:31.558Z,74979.53
2023-03-21T15:30:34.611Z,74971.44
2023-03-21T15:40:39.083Z,74953.22
2023-03-21T15:50:56.717Z,74941.06
2023-03-21T16:01:05.712Z,74969.41
2023-03-21T16:11:17.480Z,74983.56
2023-03-21T16:21:24.231Z,74995.72
2023-03-21T16:31:31.285Z,75005.81
2023-03-21T16:41:33.347Z,75034.16
2023-03-21T16:51:39.904Z,75054.38
2023-03-21T17:01:48.928Z,75098.91
2023-03-21T17:11:53.488Z,75139.38
2023-03-21T17:21:58.914Z,75155.56
2023-03-21T17:32:04.176Z,75181.88
2023-03-21T17:42:15.976Z,75204.13
2023-03-21T17:52:20.378Z,75230.44
2023-03-21T18:02:25.257Z,75238.53
2023-03-21T18:12:27.858Z,75260.78
2023-03-21T18:22:37.471Z,75283.03
2023-03-21T18:32:44.316Z,75299.22
2023-03-21T18:43:32.739Z,75305.31
2023-03-21T18:53:09.525Z,75317.44
2023-03-21T19:03:24.809Z,75327.56
2023-03-21T19:13:35.109Z,75327.56
2023-03-21T19:24:18.106Z,75329.59
2023-03-21T19:34:08.292Z,75333.63
2023-03-21T19:44:10.600Z,75325.53
2023-03-21T19:54:18.022Z,75313.41
2023-03-21T20:04:22.645Z,75329.59
2023-03-21T20:14:27.152Z,75321.50
2023-03-21T20:24:32.941Z,75343.75
2023-03-21T20:34:40.773Z,75355.91
2023-03-21T20:45:00.587Z,75370.06
2023-03-21T20:55:04.462Z,75382.19
2023-03-21T21:15:29.938Z,75394.34
2023-03-21T21:25:33.689Z,75400.41
2023-03-21T21:35:36.109Z,75410.53
2023-03-21T21:45:51.010Z,75410.53
2023-03-21T21:56:02.134Z,75418.63
2023-03-21T22:06:07.784Z,75430.75
2023-03-21T22:16:10.266Z,75455.06
2023-03-21T22:26:14.875Z,75473.25
2023-03-21T22:36:20.384Z,75495.53
2023-03-21T22:46:30.421Z,75503.63
2023-03-21T22:56:33.217Z,75501.59
2023-03-21T23:06:42.621Z,75408.50
2023-03-21T23:16:45.170Z,75479.34
2023-03-21T23:26:47.614Z,75527.91
2023-03-21T23:36:50.585Z,75531.94
2023-03-21T23:46:55.805Z,75519.81
2023-03-21T23:57:00.921Z,75515.75
